航空気象通報

ウインドサーファーのための航空気象通報による風予報です。

4/30-5/1の航空気象通報(国内、海外)

2010年04月30日 21時21分36秒 | TAF
羽田空港
TAF RJTT 300840Z 3009/0112 20012KT 9999 FEW030
BECMG 3010/3012 34016KT
TEMPO 3011/3013 34016G26KT
BECMG 3014/3016 04006KT
BECMG 0100/0103 13008KT
BECMG 0103/0106 17018KT
日本時間30日18-19時:200度から12ノットの風
19-21時:風が変化
21-23時:340度から16ノットの風
但し、30日20-22時の間:一時、340度から16ノット、突風26ノット
23時-1日01時:風が変化
01-10時:040度から6ノットの風
10-12時:風が変化
12時:130度から8ノットの風
12-15時:風が変化
15-21時:170度から18ノットの風


富士山静岡空港
TAF RJNS 300842Z 3009/0112 27012KT 9999 FEW030 SCT050
日本時間30日18時-1日21時:270度から12ノットの風


那覇空港
TAF ROAH 300842Z 3009/0112 08005KT 9999 FEW030
BECMG 0103/0106 10009KT
日本時間30日18時-1日12時:080度から5ノットの風
12-15時:風が変化
15-21時:100度から9ノットの風


マウイのカフルイ空港
PHOG 301144Z 3012/0112 06005KT P6SM SCT060
FM302000 05014G22KT P6SM VCSH BKN060
FM010500 07008KT P6SM VCSH SCT030 BKN050
ハワイ時間30日02-10時:060度から5ノットの風

10-19時:050度から14ノット、突風22ノット
19時-1日02時:070度から8ノットの風


サイパン空港
PGSN 301123Z 3012/0112 08008KT P6SM VCSH SCT020 SCT040
FM302200 08015KT P6SM VCSH SCT020 SCT040
マリアナ時間30日22時-1日08時:080度から8ノットの風
08-22時:080度から15ノットの風

コメント

4/29-4/30の航空気象通報(国内、海外)

2010年04月29日 19時44分09秒 | TAF
羽田空港
TAF RJTT 290837Z 2909/3012 22020KT 9999 FEW030
TEMPO 2909/2911 22024G36KT
BECMG 2912/2914 31006KT
BECMG 3000/3003 21010KT
日本時間29日18-21時:220度から20ノットの風
但し、29日18-20時の間:一時、220度から24ノット、突風36ノット
21-23時:風が変化
23時-30日09時:310度から6ノットの風
09-12時:風が変化
12-21時:210度から10ノットの風
但し、29日09-18時の間:一時、200度から22ノット、突風34ノット


富士山静岡空港
TAF RJNS 290836Z 2909/3012 26014KT 9999 FEW030
TEMPO 2909/2912 26018G30KT
TEMPO 3003/3012 25018G30KT
日本時間29日18時-30日21時:260度から14ノットの風
但し、29日18-21時の間:一時、260度から18ノット、突風30ノット
但し、30日12-21時の間:一時、250度から18ノット、突風30ノット


那覇空港
TAF ROAH 290837Z 2909/3012 05006KT 9999 FEW030
日本時間29日21時-30日21時:050度から6ノットの風


マウイのカフルイ空港
PHOG 291136Z 2912/3012 05012G18KT P6SM FEW035 SCT050
FM291900 07018G28KT P6SM FEW035 SCT060
FM300700 06012G18KT P6SM FEW060
ハワイ時間29日02-09時:050度から12ノット、突風18ノット
09-21時:070度から18ノット、突風28ノット
21時-30日02時:060度から12ノット、突風18ノット


サイパン空港
PGSN 291133Z 2912/3012 08011KT P6SM VCSH SCT018 SCT040
マリアナ時間29日22時-30日22時:080度から11ノットの風
コメント

4/28-4/29の航空気象通報(国内、海外)

2010年04月29日 00時13分14秒 | TAF
羽田空港
TAF AMD RJTT 281302Z 2813/2912 30004KT 8000 SCT015
TEMPO 2813/2816 BKN008 BKN015
TEMPO 2816/2821 3000 BR
BECMG 2821/2824 20016KT
TEMPO 2900/2909 20022G34KT
日本時間28日18時-29日06時:300度から4ノットの風
06-09時:風が変化
09-21時:200度から16ノットの風
但し、29日09-18時の間:一時、200度から22ノット、突風34ノット

但し、28日22時-29日01時の間:一時、

富士山静岡空港
TAF RJNS 280837Z 2809/2912 16006KT 9999 FEW015
BECMG 2810/2812 25008KT
TEMPO 2815/2821 3000 BR
TEMPO 2900/2903 4000 SHRA
BECMG 2903/2906 24020KT
日本時間28日18-19時:160度から6ノットの風
19-21時:風が変化
21時-29日12時:250度から8ノットの風
12-15時:風が変化
15-21時:240度から20ノットの風

但し、29日12-15時の間:一時、

那覇空港
TAF AMD ROAH 281207Z 2812/2912 15008KT 8000 FEW015 BKN025
BECMG 2818/2821 07004KT
BECMG 2900/2903 04014KT
日本時間28日21時-29日03時:150度から8ノットの風
03-06時:風が変化
06-09時:070度から4ノットの風
09-12時:風が変化
12-21時:040度から14ノットの風


マウイのカフルイ空港
TAFPA TAF AMD PHOG 281357Z 2814/2912 05012G20KT P6SM SCT060
FM282000 05018G28KT P6SM FEW040 SCT060
FM290400 05012G20KT P6SM FEW040 SCT060
FM291000 05010KT P6SM SCT060
ハワイ時間28日02-10時:050度から12ノット、突風20ノット
10-18時:050度から18ノット、突風28ノット
18-24時:050度から12ノット、突風20ノット
29日00-02時:050度から10ノットの風


サイパン空港
PGSN 281139Z 2812/2912 07011KT P6SM SCT020 SCT050
マリアナ時間28日22時-29日22時:070度から11ノットの風

コメント

4/27-4/28の航空気象通報(国内、海外)

2010年04月27日 21時53分34秒 | TAF
羽田空港
TAF RJTT 270837Z 2709/2812 12014KT 9000 FEW015 SCT030 BKN040
TEMPO 2714/2718 4000 -SHRA BR BKN009 BKN012
BECMG 2718/2721 09024KT
TEMPO 2718/2721 3000 SHRA BR BKN007 BKN012
TEMPO 2721/2724 3000 TSRA BR BKN007 BKN012 FEW025CB
BECMG 2800/2803 16012KT
日本時間27日18時-28日03時:120度から14ノットの風
03-06時:風が変化
06-09時:090度から24ノットの風
09-12時:風が変化
12-21時:160度から12ノットの風

但し、27日23時-28日06時の間:一時、
但し、28日06-09時の間:一時、

富士山静岡空港
TAF RJNS 270844Z 2709/2812 08012KT 6000 BKN009 BKN020
TEMPO 2709/2718 3000 SHRA BR BKN003 BKN005
TEMPO 2718/2721 1200 SHRA BR BKN003 BKN005
TEMPO 2721/2724 4000 -SHRA BR BKN003 BKN005
BECMG 2800/2803 14004KT FEW020 BKN050
BECMG 2803/2806 21008KT
日本時間27日18時-28日09時:080度から12ノットの風
09-12時:風が変化
12時:140度から4ノットの風
12-15時:風が変化
15-21時:210度から8ノットの風

但し、27日18時-28日09時の間:一時、

那覇空港
TAF ROAH 270844Z 2709/2812 06007KT 9999 FEW020 SCT040
BECMG 2721/2724 12011KT
日本時間27日18時-28日06時:060度から7ノットの風
06-09時:風が変化
09-21時:120度から11ノットの風


マウイのカフルイ空港
PHOG 271121Z 2712/2812 05011KT P6SM SCT050
FM272000 04017G28KT P6SM FEW035 SCT060
FM280600 06012G20KT P6SM BKN045
ハワイ時間27日02-10時:050度から11ノットの風
10-20時:040度から17ノット、突風28ノット

20時-28日02時:060度から12ノット、突風20ノット


サイパン空港
PGSN 271124Z 2712/2812 08007KT P6SM FEW018
FM272300 09011KT P6SM VCSH SCT022
マリアナ時間27日22時-28日09時:080度から7ノットの風
09-22時:090度から11ノットの風

コメント

4/26-4/27の航空気象通報(国内、海外)

2010年04月27日 00時06分34秒 | TAF
羽田空港
TAF RJTT 260840Z 2609/2712 10015KT 9999 FEW030
BECMG 2616/2618 04006KT
BECMG 2700/2703 13018KT
日本時間26日18時-27日01時:100度から15ノットの風
01-03時:風が変化
03-09時:040度から6ノットの風
09-12時:風が変化
12-21時:130度から18ノットの風


富士山静岡空港
TAF RJNS 260842Z 2609/2712 04005KT 9999 FEW030
BECMG 2700/2703 12010KT
BECMG 2703/2706 4000 -SHRA BR FEW006 BKN009 BKN012
TEMPO 2706/2712 2000 SHRA BKN005 BKN008
日本時間26日18時-27日09時:040度から5ノットの風
09-12時:風が変化
、12-15時の後、

那覇空港
TAF ROAH 260851Z 2609/2712 16015KT 9999 FEW015 BKN030
BECMG 2618/2621 32020KT
TEMPO 2618/2621 29022G32KT 2000 TSRA SCT008 BKN015 BKN025 SCT025CB
日本時間26日18時-27日03時:160度から15ノットの風
03-06時:風が変化
06-21時:320度から20ノットの風
但し、03-06時の間:一時、290度から22ノット、突風32ノット

但し、03-06時の間:一時、

マウイのカフルイ空港
PHOG 261130Z 2612/2712 04011KT P6SM FEW035 SCT050
FM262000 04018G28KT P6SM SCT050
FM270500 04013G18KT P6SM FEW035
FM270800 04011KT P6SM FEW035 SCT050
ハワイ時間26日02-10時:040度から11ノットの風
10-19時:040度から18ノット、突風28ノット
19-22時:040度から13ノット、突風18ノット
22時-27日02時:040度から11ノットの風


サイパン空港
PGSN 261120Z 2612/2712 02007KT P6SM SCT030
FM262300 08011KT P6SM SCT024
マリアナ時間26日22時-27日09時:020度から7ノットの風
09-22時:080度から11ノットの風
コメント